createdAt,value
2023-04-24T00:01:50.153Z,18.50
2023-04-24T00:04:19.259Z,18.30
2023-04-24T00:06:50.587Z,18.83
2023-04-24T00:09:17.459Z,18.25
2023-04-24T00:11:44.259Z,18.65
2023-04-24T00:14:11.230Z,17.80
2023-04-24T00:16:38.206Z,17.45
2023-04-24T00:19:06.990Z,17.23
2023-04-24T00:21:33.856Z,17.95
2023-04-24T00:24:00.904Z,18.20
2023-04-24T00:26:27.852Z,18.17
2023-04-24T00:28:54.761Z,18.40
2023-04-24T00:31:21.696Z,18.50
2023-04-24T00:33:48.485Z,19.70
2023-04-24T00:36:15.502Z,19.60
2023-04-24T00:38:42.305Z,19.17
2023-04-24T00:41:09.111Z,19.83
2023-04-24T00:43:36.110Z,20.35
2023-04-24T00:46:03.288Z,20.48
2023-04-24T00:48:30.606Z,19.52
2023-04-24T00:50:58.376Z,20.55
2023-04-24T00:53:25.234Z,20.90
2023-04-24T00:55:52.432Z,20.42
2023-04-24T00:58:20.028Z,20.17
2023-04-24T01:00:47.328Z,20.90
2023-04-24T01:03:15.357Z,19.52
2023-04-24T01:05:43.014Z,19.08
2023-04-24T01:08:09.949Z,19.20
2023-04-24T01:10:38.901Z,20.10
2023-04-24T01:13:06.427Z,20.73
2023-04-24T01:15:33.507Z,19.35
2023-04-24T01:18:00.531Z,19.98
2023-04-24T01:20:27.921Z,20.17
2023-04-24T01:22:57.571Z,19.52
2023-04-24T01:25:26.928Z,18.73
2023-04-24T01:27:53.806Z,19.52
2023-04-24T01:30:20.667Z,17.95
2023-04-24T01:32:47.735Z,19.08
2023-04-24T01:35:15.491Z,18.23
2023-04-24T01:37:42.302Z,17.73
2023-04-24T01:40:09.490Z,16.52
2023-04-24T01:42:37.069Z,15.68
2023-04-24T01:45:06.240Z,15.05
2023-04-24T01:47:33.763Z,14.00
2023-04-24T01:50:00.720Z,13.73
2023-04-24T01:52:28.189Z,11.63
2023-04-24T01:54:56.907Z,12.02
2023-04-24T01:57:23.969Z,11.82
2023-04-24T01:59:51.852Z,11.30
2023-04-24T02:02:19.398Z,12.00
2023-04-24T02:04:46.218Z,11.68
2023-04-24T02:07:13.381Z,12.00
2023-04-24T02:09:40.396Z,12.13
2023-04-24T02:12:07.397Z,12.05
2023-04-24T02:14:34.398Z,12.75
2023-04-24T02:17:01.757Z,12.27
2023-04-24T02:19:28.819Z,12.18
2023-04-24T02:21:55.664Z,12.25
2023-04-24T02:24:22.521Z,11.43
2023-04-24T02:26:49.761Z,13.23
2023-04-24T02:29:16.820Z,13.35
2023-04-24T02:31:43.737Z,13.68
2023-04-24T02:34:10.633Z,13.57
2023-04-24T02:36:37.496Z,13.88
2023-04-24T02:39:04.749Z,14.27
2023-04-24T02:41:33.693Z,15.90
2023-04-24T02:44:00.763Z,14.63
2023-04-24T02:46:28.051Z,15.13
2023-04-24T02:48:55.017Z,15.25
2023-04-24T02:51:21.922Z,15.70
2023-04-24T02:53:48.775Z,15.32
2023-04-24T02:56:15.694Z,14.98
2023-04-24T02:58:43.436Z,14.82
2023-04-24T03:01:13.434Z,14.85
2023-04-24T03:03:41.245Z,15.50
2023-04-24T03:06:09.101Z,15.38
2023-04-24T03:08:36.552Z,16.13
2023-04-24T03:11:03.469Z,13.15
2023-04-24T03:13:30.471Z,13.80
2023-04-24T03:15:57.346Z,14.13
2023-04-24T03:18:24.239Z,14.32
2023-04-24T03:20:51.225Z,14.55
2023-04-24T03:23:18.028Z,14.90
2023-04-24T03:25:45.096Z,16.00
2023-04-24T03:28:11.902Z,16.13
2023-04-24T03:30:38.723Z,17.10
2023-04-24T03:33:05.641Z,17.83
2023-04-24T03:35:32.708Z,18.27
2023-04-24T03:37:59.599Z,18.02
2023-04-24T03:40:26.395Z,16.92
2023-04-24T03:42:53.318Z,15.90
2023-04-24T03:45:20.250Z,16.23
2023-04-24T03:47:47.220Z,14.05
2023-04-24T03:50:14.055Z,14.05
2023-04-24T03:52:40.848Z,10.80
2023-04-24T03:55:08.320Z,9.23
2023-04-24T03:57:35.148Z,7.20
2023-04-24T04:00:07.360Z,6.78
2023-04-24T04:02:34.263Z,5.40
2023-04-24T04:05:01.313Z,5.50
2023-04-24T04:07:28.279Z,5.80
2023-04-24T04:09:55.095Z,5.72
2023-04-24T04:12:21.974Z,7.47
2023-04-24T04:14:48.807Z,6.57
2023-04-24T04:17:16.179Z,6.80
2023-04-24T04:19:43.362Z,7.13
2023-04-24T04:22:10.320Z,7.25
2023-04-24T04:24:39.106Z,6.90
2023-04-24T04:27:06.549Z,7.35
2023-04-24T04:29:33.708Z,6.68
2023-04-24T04:32:00.631Z,8.00
2023-04-24T04:34:27.547Z,7.95
2023-04-24T04:36:54.393Z,9.05
2023-04-24T04:39:21.326Z,9.18
2023-04-24T04:41:50.295Z,9.95
2023-04-24T04:44:17.338Z,10.43
2023-04-24T04:46:45.311Z,10.32
2023-04-24T04:49:12.211Z,10.27
2023-04-24T04:51:40.684Z,10.88
2023-04-24T04:54:08.733Z,13.10
2023-04-24T04:56:35.676Z,15.25
2023-04-24T04:59:02.476Z,15.23
2023-04-24T05:01:29.345Z,16.40
2023-04-24T05:03:56.620Z,16.05
2023-04-24T05:06:24.604Z,16.52
2023-04-24T05:08:52.285Z,16.88
2023-04-24T05:11:19.381Z,15.55
2023-04-24T05:13:46.221Z,15.25
2023-04-24T05:16:13.266Z,15.50
2023-04-24T05:18:40.287Z,15.02
2023-04-24T05:21:07.320Z,14.10
2023-04-24T05:23:34.233Z,13.77
2023-04-24T05:26:01.145Z,12.82
2023-04-24T05:28:29.530Z,11.88
2023-04-24T05:30:57.203Z,11.40
2023-04-24T05:33:24.170Z,11.15
2023-04-24T05:35:51.032Z,11.00
2023-04-24T05:38:20.662Z,9.55
2023-04-24T05:40:47.633Z,9.68
2023-04-24T05:43:14.879Z,9.70
2023-04-24T05:45:41.802Z,10.25
2023-04-24T05:48:08.651Z,10.82
2023-04-24T05:50:36.968Z,9.98
2023-04-24T05:53:04.777Z,10.68
2023-04-24T05:55:32.634Z,12.30
2023-04-24T05:57:59.818Z,11.43
2023-04-24T06:00:27.917Z,11.55
2023-04-24T06:02:55.424Z,12.73
2023-04-24T06:05:22.935Z,12.32
2023-04-24T06:07:50.278Z,13.32
2023-04-24T06:10:17.322Z,13.63
2023-04-24T06:12:44.372Z,13.65
2023-04-24T06:15:11.927Z,14.60
2023-04-24T06:17:38.999Z,14.88
2023-04-24T06:20:07.810Z,15.02
2023-04-24T06:22:34.784Z,17.40
2023-04-24T06:25:02.596Z,15.32
2023-04-24T06:27:29.433Z,15.60
2023-04-24T06:29:56.478Z,16.00
2023-04-24T06:32:26.723Z,17.23
2023-04-24T06:34:54.162Z,17.27
2023-04-24T06:37:24.580Z,16.70
2023-04-24T06:39:51.438Z,16.88
2023-04-24T06:42:18.394Z,16.50
2023-04-24T06:44:46.057Z,17.42
2023-04-24T06:47:14.768Z,18.77
2023-04-24T06:49:42.173Z,18.27
2023-04-24T06:52:09.597Z,18.17
2023-04-24T06:54:36.697Z,15.95
2023-04-24T06:57:04.459Z,15.43
2023-04-24T06:59:31.770Z,15.40
2023-04-24T07:01:59.174Z,14.85
2023-04-24T07:04:26.787Z,12.57
2023-04-24T07:06:57.017Z,12.05
2023-04-24T07:09:26.311Z,11.82
2023-04-24T07:11:54.404Z,9.20
2023-04-24T07:14:21.868Z,8.38
2023-04-24T07:16:48.940Z,8.93
2023-04-24T07:19:16.115Z,8.10
2023-04-24T07:21:43.118Z,8.10
2023-04-24T07:24:11.913Z,7.43
2023-04-24T07:26:40.393Z,7.05
2023-04-24T07:29:08.107Z,5.97
2023-04-24T07:31:35.175Z,5.65
2023-04-24T07:34:02.514Z,6.80
2023-04-24T07:36:29.530Z,5.90
2023-04-24T07:38:57.749Z,4.60
2023-04-24T07:41:25.534Z,5.05
2023-04-24T07:43:54.710Z,4.55
2023-04-24T07:46:22.244Z,5.47
2023-04-24T07:48:58.548Z,4.80
2023-04-24T07:51:29.066Z,3.70
2023-04-24T07:53:56.314Z,4.30
2023-04-24T07:56:23.457Z,4.50
2023-04-24T07:58:50.400Z,4.22
2023-04-24T08:01:17.582Z,3.72
2023-04-24T08:03:44.689Z,3.38
2023-04-24T08:06:11.873Z,3.38
2023-04-24T08:08:38.911Z,3.60
2023-04-24T08:11:05.812Z,5.00
2023-04-24T08:13:32.933Z,3.58
2023-04-24T08:15:59.861Z,3.33
2023-04-24T08:18:27.429Z,3.47
2023-04-24T08:20:54.547Z,4.80
2023-04-24T08:23:21.511Z,5.20
2023-04-24T08:25:48.648Z,4.65
2023-04-24T08:28:21.167Z,5.28
2023-04-24T08:30:48.809Z,5.40
2023-04-24T08:33:16.253Z,4.60
2023-04-24T08:35:43.286Z,4.78
2023-04-24T08:38:10.303Z,5.20
2023-04-24T08:40:38.358Z,5.57
2023-04-24T08:43:05.326Z,5.07
2023-04-24T08:45:33.748Z,4.60
2023-04-24T08:48:01.504Z,4.50
2023-04-24T08:50:29.880Z,4.47
2023-04-24T08:52:58.068Z,3.50
2023-04-24T08:55:26.316Z,2.90
2023-04-24T08:57:54.265Z,4.03
2023-04-24T09:00:24.221Z,3.20
2023-04-24T09:02:52.257Z,3.40
2023-04-24T09:05:39.530Z,3.30
2023-04-24T09:08:08.379Z,2.75
2023-04-24T09:10:36.454Z,2.33
2023-04-24T09:13:03.542Z,2.50
2023-04-24T09:15:30.914Z,3.28
2023-04-24T09:17:57.978Z,2.60
2023-04-24T09:20:25.017Z,2.60
2023-04-24T09:22:56.517Z,2.47
2023-04-24T09:25:23.600Z,3.33
2023-04-24T09:27:54.737Z,3.03
2023-04-24T09:30:24.729Z,3.08
2023-04-24T09:33:16.751Z,3.50
2023-04-24T09:35:50.331Z,3.28
2023-04-24T09:38:17.299Z,3.35
2023-04-24T09:40:44.830Z,3.03
2023-04-24T09:43:12.907Z,3.50
2023-04-24T09:45:40.807Z,4.13
2023-04-24T09:48:11.443Z,3.70
2023-04-24T09:50:38.420Z,2.38
2023-04-24T09:53:09.878Z,2.80
2023-04-24T09:55:43.215Z,4.00
2023-04-24T09:58:10.336Z,3.17
2023-04-24T10:00:41.261Z,3.67
2023-04-24T10:03:09.249Z,3.42
2023-04-24T10:05:38.203Z,3.33
2023-04-24T10:08:07.377Z,2.60
2023-04-24T10:10:37.609Z,2.80
2023-04-24T10:13:05.830Z,2.13
2023-04-24T10:15:33.610Z,1.95
2023-04-24T10:18:00.957Z,2.40
2023-04-24T10:20:32.589Z,2.40
2023-04-24T10:23:05.827Z,1.73
2023-04-24T10:25:35.726Z,2.70
2023-04-24T10:28:04.556Z,2.45
2023-04-24T10:30:36.350Z,2.13
2023-04-24T10:33:05.513Z,2.10
2023-04-24T10:35:39.467Z,2.63
2023-04-24T10:38:17.900Z,2.42
2023-04-24T10:40:45.398Z,2.47
2023-04-24T10:43:17.600Z,2.10
2023-04-24T10:46:02.220Z,2.03
2023-04-24T10:48:29.163Z,1.92
2023-04-24T10:50:56.007Z,1.92
2023-04-24T10:53:24.606Z,2.15
2023-04-24T10:55:53.460Z,1.85
2023-04-24T10:58:24.833Z,1.88
2023-04-24T11:01:00.064Z,1.92
2023-04-24T11:03:32.462Z,2.58
2023-04-24T11:06:09.981Z,2.40
2023-04-24T11:08:45.200Z,1.98
2023-04-24T11:11:18.089Z,1.70
2023-04-24T11:13:57.695Z,1.58
2023-04-24T11:16:24.825Z,1.50
2023-04-24T11:18:56.670Z,1.85
2023-04-24T11:21:24.067Z,1.67
2023-04-24T11:23:51.792Z,1.80
2023-04-24T11:26:22.601Z,1.40
2023-04-24T11:28:50.792Z,1.42
2023-04-24T11:31:49.744Z,1.40
2023-04-24T11:34:17.467Z,1.50
2023-04-24T11:36:45.250Z,1.60
2023-04-24T11:39:12.644Z,1.10
2023-04-24T11:41:39.712Z,1.20
2023-04-24T11:44:10.222Z,1.20
2023-04-24T11:46:39.098Z,1.50
2023-04-24T11:49:06.695Z,1.38
2023-04-24T11:51:43.880Z,1.65
2023-04-24T11:54:15.231Z,1.58
2023-04-24T11:56:47.440Z,1.42
2023-04-24T11:59:14.491Z,1.50
2023-04-24T12:01:48.480Z,1.98
2023-04-24T12:04:16.753Z,1.88
2023-04-24T12:07:03.927Z,1.48
2023-04-24T12:09:41.709Z,1.60
2023-04-24T12:12:09.154Z,1.88
2023-04-24T12:14:48.181Z,1.60
2023-04-24T12:17:15.319Z,1.40
2023-04-24T12:19:49.534Z,1.50
2023-04-24T12:22:16.494Z,1.25
2023-04-24T12:25:04.456Z,1.83
2023-04-24T12:27:33.209Z,1.40
2023-04-24T12:30:01.671Z,1.60
2023-04-24T12:32:28.974Z,1.70
2023-04-24T12:34:57.498Z,2.05
2023-04-24T12:37:28.081Z,1.73
2023-04-24T12:40:01.883Z,2.03
2023-04-24T12:42:30.576Z,1.77
2023-04-24T12:45:30.885Z,2.63
2023-04-24T12:47:57.812Z,2.42
2023-04-24T12:50:24.822Z,1.80
2023-04-24T12:52:51.717Z,1.75
2023-04-24T12:55:18.666Z,2.13
2023-04-24T12:57:45.604Z,2.15
2023-04-24T13:00:19.448Z,1.85
2023-04-24T13:02:47.093Z,1.95
2023-04-24T13:05:14.880Z,2.20
2023-04-24T13:07:41.831Z,2.20
2023-04-24T13:10:09.250Z,2.20
2023-04-24T13:12:36.335Z,2.20
2023-04-24T13:15:03.303Z,2.00
2023-04-24T13:17:30.343Z,2.38
2023-04-24T13:19:57.273Z,2.60
2023-04-24T13:22:24.215Z,2.42
2023-04-24T13:24:51.133Z,1.38
2023-04-24T13:27:18.904Z,1.17
2023-04-24T13:29:46.429Z,1.05
2023-04-24T13:32:13.365Z,0.93
2023-04-24T13:34:40.385Z,1.15
2023-04-24T13:37:09.065Z,1.30
2023-04-24T13:39:36.393Z,1.88
2023-04-24T13:42:04.819Z,1.20
2023-04-24T13:44:32.345Z,1.20
2023-04-24T13:47:00.055Z,1.58
2023-04-24T13:49:27.605Z,1.30
2023-04-24T13:51:56.338Z,1.85
2023-04-24T13:54:26.898Z,1.27
2023-04-24T13:56:54.335Z,1.52
2023-04-24T13:59:22.566Z,1.40
2023-04-24T14:01:49.764Z,1.48
2023-04-24T14:04:17.138Z,1.23
2023-04-24T14:06:44.968Z,1.25
2023-04-24T14:09:11.825Z,1.70
2023-04-24T14:11:38.953Z,1.20
2023-04-24T14:14:06.611Z,1.50
2023-04-24T14:16:33.711Z,1.63
2023-04-24T14:19:00.658Z,1.35
2023-04-24T14:21:27.613Z,1.55
2023-04-24T14:23:54.402Z,0.90
2023-04-24T14:26:21.539Z,1.02
2023-04-24T14:28:48.334Z,1.55
2023-04-24T14:31:15.343Z,1.20
2023-04-24T14:33:42.363Z,1.02
2023-04-24T14:36:09.284Z,1.27
2023-04-24T14:38:36.191Z,1.20
2023-04-24T14:41:10.591Z,1.08
2023-04-24T14:43:40.100Z,1.48
2023-04-24T14:46:07.024Z,1.35
2023-04-24T14:48:33.904Z,1.58
2023-04-24T14:51:02.295Z,1.65
2023-04-24T14:53:29.284Z,1.63
2023-04-24T14:55:56.151Z,1.40
2023-04-24T14:58:23.181Z,1.52
2023-04-24T15:00:53.009Z,1.70
2023-04-24T15:03:22.922Z,2.42
2023-04-24T15:05:50.288Z,1.90
2023-04-24T15:08:17.294Z,1.55
2023-04-24T15:10:44.255Z,1.42
2023-04-24T15:13:11.150Z,1.75
2023-04-24T15:15:38.242Z,1.80
2023-04-24T15:18:06.566Z,1.70
2023-04-24T15:20:33.550Z,1.52
2023-04-24T15:23:01.471Z,1.40
2023-04-24T15:25:29.491Z,1.20
2023-04-24T15:27:56.443Z,1.40
2023-04-24T15:30:23.343Z,1.50
2023-04-24T15:32:50.499Z,2.35
2023-04-24T15:35:17.701Z,1.60
2023-04-24T15:37:44.883Z,1.40
2023-04-24T15:40:14.301Z,1.58
2023-04-24T15:42:42.167Z,1.90
2023-04-24T15:45:10.323Z,2.20
2023-04-24T15:47:37.370Z,1.70
2023-04-24T15:50:05.328Z,1.33
2023-04-24T15:52:32.299Z,1.50
2023-04-24T15:54:59.184Z,1.55
2023-04-24T15:57:26.436Z,1.48
2023-04-24T15:59:53.722Z,1.52
2023-04-24T16:02:21.378Z,1.27
2023-04-24T16:04:49.758Z,1.50
2023-04-24T16:07:20.248Z,1.58
2023-04-24T16:09:47.507Z,1.95
2023-04-24T16:12:14.904Z,2.40
2023-04-24T16:14:42.336Z,3.03
2023-04-24T16:17:09.464Z,2.95
2023-04-24T16:19:36.484Z,2.97
2023-04-24T16:22:04.279Z,3.20
2023-04-24T16:24:31.417Z,3.20
2023-04-24T16:26:58.410Z,2.95
2023-04-24T16:29:25.516Z,3.40
2023-04-24T16:31:53.318Z,3.55
2023-04-24T16:34:20.273Z,2.40
2023-04-24T16:36:48.257Z,2.50
2023-04-24T16:39:15.371Z,2.35
2023-04-24T16:41:42.347Z,3.30
2023-04-24T16:44:09.185Z,2.45
2023-04-24T16:46:36.138Z,2.47
2023-04-24T16:49:03.275Z,2.60
2023-04-24T16:51:30.217Z,2.78
2023-04-24T16:53:57.109Z,2.78
2023-04-24T16:56:24.134Z,2.40
2023-04-24T16:58:51.356Z,2.95
2023-04-24T17:01:18.353Z,2.60
2023-04-24T17:03:46.696Z,2.88
2023-04-24T17:06:13.698Z,2.47
2023-04-24T17:08:40.606Z,2.50
2023-04-24T17:11:07.466Z,2.35
2023-04-24T17:13:34.363Z,2.70
2023-04-24T17:16:02.328Z,2.67
2023-04-24T17:18:29.277Z,2.40
2023-04-24T17:20:56.127Z,2.78
2023-04-24T17:23:23.531Z,2.58
2023-04-24T17:25:50.447Z,2.88
2023-04-24T17:28:27.321Z,2.58
2023-04-24T17:30:58.186Z,2.40
2023-04-24T17:33:30.666Z,2.17
2023-04-24T17:36:03.754Z,2.58
2023-04-24T17:38:31.110Z,2.50
2023-04-24T17:40:58.560Z,3.00
2023-04-24T17:43:26.354Z,2.70
2023-04-24T17:45:57.011Z,3.13
2023-04-24T17:48:24.021Z,2.67
2023-04-24T17:50:51.795Z,2.60
2023-04-24T17:53:19.035Z,2.47
2023-04-24T17:55:49.081Z,2.60
2023-04-24T17:58:16.067Z,2.75
2023-04-24T18:00:43.050Z,2.83
2023-04-24T18:03:10.471Z,2.95
2023-04-24T18:05:38.792Z,2.58
2023-04-24T18:08:07.576Z,2.65
2023-04-24T18:10:37.844Z,3.28
2023-04-24T18:13:05.410Z,3.15
2023-04-24T18:15:32.403Z,2.95
2023-04-24T18:17:59.879Z,2.90
2023-04-24T18:20:27.382Z,3.15
2023-04-24T18:22:54.606Z,2.88
2023-04-24T18:25:26.634Z,3.00
2023-04-24T18:27:54.669Z,3.20
2023-04-24T18:30:22.798Z,2.80
2023-04-24T18:32:50.744Z,3.00
2023-04-24T18:35:19.141Z,3.08
2023-04-24T18:37:46.466Z,3.50
2023-04-24T18:40:14.764Z,4.47
2023-04-24T18:42:42.301Z,3.00
2023-04-24T18:45:11.342Z,3.42
2023-04-24T18:47:40.085Z,3.13
2023-04-24T18:50:07.582Z,3.03
2023-04-24T18:52:34.511Z,3.55
2023-04-24T18:55:02.111Z,3.45
2023-04-24T18:57:29.822Z,3.17
2023-04-24T18:59:56.674Z,2.92
2023-04-24T19:02:23.665Z,2.83
2023-04-24T19:04:50.623Z,3.13
2023-04-24T19:07:19.380Z,3.25
2023-04-24T19:09:46.375Z,3.35
2023-04-24T19:12:13.355Z,3.42
2023-04-24T19:14:40.405Z,3.47
2023-04-24T19:17:10.030Z,3.30
2023-04-24T19:19:37.099Z,3.75
2023-04-24T19:22:04.135Z,3.55
2023-04-24T19:24:33.159Z,3.17
2023-04-24T19:27:00.025Z,4.13
2023-04-24T19:29:27.200Z,3.47
2023-04-24T19:31:54.689Z,4.07
2023-04-24T19:34:21.598Z,3.83
2023-04-24T19:36:48.729Z,3.65
2023-04-24T19:39:16.341Z,4.20
2023-04-24T19:41:43.202Z,3.75
2023-04-24T19:44:10.376Z,4.10
2023-04-24T19:46:37.408Z,4.32
2023-04-24T19:49:04.434Z,4.00
2023-04-24T19:51:32.354Z,3.88
2023-04-24T19:53:59.872Z,4.07
2023-04-24T19:56:27.029Z,4.38
2023-04-24T19:58:53.879Z,3.97
2023-04-24T20:01:21.074Z,4.40
2023-04-24T20:03:48.034Z,4.60
2023-04-24T20:06:14.959Z,5.65
2023-04-24T20:08:42.950Z,5.20
2023-04-24T20:11:10.123Z,4.63
2023-04-24T20:13:37.014Z,4.40
2023-04-24T20:16:04.637Z,4.30
2023-04-24T20:18:31.552Z,3.95
2023-04-24T20:20:59.934Z,5.57
2023-04-24T20:23:27.318Z,4.60
2023-04-24T20:25:58.239Z,4.60
2023-04-24T20:28:26.370Z,4.10
2023-04-24T20:30:53.884Z,3.83
2023-04-24T20:33:21.527Z,4.50
2023-04-24T20:35:49.330Z,4.00
2023-04-24T20:38:18.471Z,3.55
2023-04-24T20:40:57.121Z,4.45
2023-04-24T20:43:28.760Z,4.20
2023-04-24T20:45:58.346Z,4.20
2023-04-24T20:48:26.460Z,4.32
2023-04-24T20:50:56.659Z,4.10
2023-04-24T20:53:23.647Z,4.13
2023-04-24T20:55:50.886Z,4.10
2023-04-24T20:58:23.909Z,4.40
2023-04-24T21:00:51.847Z,4.45
2023-04-24T21:03:18.984Z,4.32
2023-04-24T21:05:46.022Z,4.10
2023-04-24T21:08:13.167Z,4.82
2023-04-24T21:10:40.383Z,5.05
2023-04-24T21:13:07.299Z,4.07
2023-04-24T21:15:34.251Z,4.18
2023-04-24T21:18:01.995Z,4.60
2023-04-24T21:20:29.021Z,3.88
2023-04-24T21:22:55.879Z,4.47
2023-04-24T21:25:22.808Z,3.90
2023-04-24T21:27:49.729Z,5.30
2023-04-24T21:30:16.808Z,3.80
2023-04-24T21:32:43.750Z,4.07
2023-04-24T21:35:10.744Z,3.85
2023-04-24T21:37:39.351Z,3.88
2023-04-24T21:40:07.712Z,3.53
2023-04-24T21:42:34.756Z,3.83
2023-04-24T21:45:01.744Z,4.32
2023-04-24T21:47:28.623Z,4.50
2023-04-24T21:49:55.499Z,4.22
2023-04-24T21:52:22.455Z,4.05
2023-04-24T21:54:49.357Z,3.83
2023-04-24T21:57:16.380Z,4.32
2023-04-24T21:59:43.473Z,3.92
2023-04-24T22:02:10.613Z,4.00
2023-04-24T22:04:37.847Z,4.05
2023-04-24T22:07:04.959Z,4.00
2023-04-24T22:09:31.763Z,4.18
2023-04-24T22:11:58.676Z,3.67
2023-04-24T22:14:26.201Z,3.85
2023-04-24T22:16:53.088Z,5.25
2023-04-24T22:19:20.046Z,4.18
2023-04-24T22:21:47.039Z,3.80
2023-04-24T22:24:14.277Z,4.03
2023-04-24T22:26:41.223Z,3.92
2023-04-24T22:29:08.088Z,4.22
2023-04-24T22:31:34.971Z,5.45
2023-04-24T22:34:01.951Z,5.18
2023-04-24T22:36:28.805Z,4.53
2023-04-24T22:38:55.860Z,4.20
2023-04-24T22:41:22.716Z,4.60
2023-04-24T22:43:50.287Z,3.78
2023-04-24T22:46:17.967Z,3.83
2023-04-24T22:48:45.706Z,3.42
2023-04-24T22:51:12.664Z,4.25
2023-04-24T22:53:39.470Z,4.30
2023-04-24T22:56:06.815Z,4.38
2023-04-24T22:58:33.713Z,4.40
2023-04-24T23:01:00.979Z,4.00
2023-04-24T23:03:28.023Z,5.55
2023-04-24T23:05:55.271Z,4.50
2023-04-24T23:08:22.074Z,3.58
2023-04-24T23:10:48.933Z,4.03
2023-04-24T23:13:16.349Z,3.97
2023-04-24T23:15:43.239Z,3.72
2023-04-24T23:18:10.475Z,4.68
2023-04-24T23:20:38.663Z,3.83
2023-04-24T23:23:05.877Z,3.35
2023-04-24T23:25:33.150Z,4.60
2023-04-24T23:27:59.970Z,4.18
2023-04-24T23:30:26.971Z,4.32
2023-04-24T23:32:53.897Z,3.78
2023-04-24T23:35:20.783Z,3.50
2023-04-24T23:37:48.314Z,3.30
2023-04-24T23:40:15.344Z,3.45
2023-04-24T23:42:42.296Z,4.38
2023-04-24T23:45:11.073Z,3.38
2023-04-24T23:47:38.363Z,3.65
2023-04-24T23:50:05.840Z,4.57
2023-04-24T23:52:32.880Z,4.28
2023-04-24T23:54:59.993Z,3.67
2023-04-24T23:57:26.930Z,3.92
2023-04-24T23:59:53.779Z,4.10
